createdAt,value
2018-08-04T00:00:08.596Z,80.17
2018-08-04T00:01:18.707Z,80.46
2018-08-04T00:02:28.804Z,80.55
2018-08-04T00:03:38.891Z,80.65
2018-08-04T00:04:48.991Z,80.36
2018-08-04T00:05:59.117Z,80.46
2018-08-04T00:07:08.679Z,80.17
2018-08-04T00:08:18.806Z,80.07
2018-08-04T00:09:28.882Z,80.07
2018-08-04T00:10:39.201Z,80.46
2018-08-04T00:11:49.336Z,80.55
2018-08-04T00:12:59.625Z,80.65
2018-08-04T00:14:09.211Z,80.65
2018-08-04T00:15:19.312Z,80.46
2018-08-04T00:16:29.395Z,80.65
2018-08-04T00:17:39.478Z,80.46
2018-08-04T00:18:49.542Z,80.26
2018-08-04T00:19:59.622Z,80.26
2018-08-04T00:21:09.725Z,80.26
2018-08-04T00:22:19.542Z,80.65
2018-08-04T00:23:29.616Z,80.65
2018-08-04T00:24:39.722Z,80.55
2018-08-04T00:25:49.816Z,80.36
2018-08-04T00:26:59.885Z,80.46
2018-08-04T00:28:09.955Z,80.42
2018-08-04T00:29:20.022Z,80.65
2018-08-04T00:30:30.128Z,80.42
2018-08-04T00:31:40.212Z,80.62
2018-08-04T00:32:50.501Z,80.42
2018-08-04T00:34:00.592Z,80.13
2018-08-04T00:35:10.408Z,80.17
2018-08-04T00:36:20.592Z,80.03
2018-08-04T00:37:30.415Z,80.13
2018-08-04T00:38:40.245Z,80.03
2018-08-04T00:39:50.518Z,80.32
2018-08-04T00:41:00.350Z,80.03
2018-08-04T00:42:10.435Z,80.03
2018-08-04T00:43:20.502Z,79.93
2018-08-04T00:44:30.600Z,80.03
2018-08-04T00:45:40.671Z,80.13
2018-08-04T00:46:50.748Z,79.93
2018-08-04T00:48:00.825Z,80.52
2018-08-04T00:49:10.911Z,80.42
2018-08-04T00:50:20.477Z,80.62
2018-08-04T00:51:30.550Z,80.62
2018-08-04T00:52:40.667Z,80.42
2018-08-04T00:53:50.756Z,80.62
2018-08-04T00:55:00.556Z,80.03
2018-08-04T00:56:10.661Z,80.03
2018-08-04T00:57:20.739Z,80.13
2018-08-04T00:58:30.823Z,80.03
2018-08-04T00:59:40.957Z,79.93
2018-08-04T01:00:51.037Z,79.93
2018-08-04T01:02:01.136Z,80.13
2018-08-04T01:03:11.211Z,80.32
2018-08-04T01:04:21.295Z,80.32
2018-08-04T01:05:31.184Z,80.42
2018-08-04T01:06:41.273Z,79.93
2018-08-04T01:07:51.365Z,80.03
2018-08-04T01:09:01.441Z,80.03
2018-08-04T01:10:11.248Z,80.03
2018-08-04T01:11:21.124Z,80.03
2018-08-04T01:12:30.936Z,80.13
2018-08-04T01:13:40.753Z,79.93
2018-08-04T01:14:50.963Z,80.03
2018-08-04T01:16:01.061Z,80.13
2018-08-04T01:17:11.182Z,80.52
2018-08-04T01:18:21.263Z,80.22
2018-08-04T01:19:31.336Z,80.62
2018-08-04T01:20:40.928Z,80.22
2018-08-04T01:21:50.743Z,80.42
2018-08-04T01:23:00.624Z,80.62
2018-08-04T01:24:10.701Z,80.09
2018-08-04T01:25:19.989Z,80.62
2018-08-04T01:26:30.071Z,80.62
2018-08-04T01:27:40.012Z,80.57
2018-08-04T01:28:50.082Z,80.77
2018-08-04T01:30:00.164Z,80.71
2018-08-04T01:31:10.235Z,80.77
2018-08-04T01:32:20.321Z,80.77
2018-08-04T01:33:30.128Z,80.67
2018-08-04T01:34:40.195Z,80.77
2018-08-04T01:35:49.765Z,80.57
2018-08-04T01:36:59.851Z,80.77
2018-08-04T01:38:09.929Z,80.19
2018-08-04T01:39:20.021Z,80.38
2018-08-04T01:40:30.095Z,80.57
2018-08-04T01:41:40.176Z,80.38
2018-08-04T01:42:50.259Z,80.38
2018-08-04T01:44:00.352Z,80.38
2018-08-04T01:45:10.437Z,80.19
2018-08-04T01:46:20.585Z,80.47
2018-08-04T01:47:30.418Z,80.28
2018-08-04T01:48:40.488Z,80.38
2018-08-04T01:49:50.302Z,80.38
2018-08-04T01:51:00.389Z,80.47
2018-08-04T01:52:10.471Z,80.57
2018-08-04T01:53:20.543Z,80.38
2018-08-04T01:54:30.618Z,80.47
2018-08-04T01:55:40.699Z,80.47
2018-08-04T01:56:50.832Z,80.19
2018-08-04T01:58:00.903Z,80.47
2018-08-04T01:59:11.044Z,79.8
2018-08-04T02:00:21.481Z,80.57
2018-08-04T02:01:31.572Z,80.57
2018-08-04T02:02:41.679Z,80.19
2018-08-04T02:03:52.006Z,80.47
2018-08-04T02:05:01.894Z,80.38
2018-08-04T02:06:11.983Z,80.38
2018-08-04T02:07:22.178Z,80.28
2018-08-04T02:08:32.421Z,80.28
2018-08-04T02:09:42.517Z,80.38
2018-08-04T02:10:52.604Z,80.38
2018-08-04T02:12:02.692Z,80.47
2018-08-04T02:13:12.805Z,80.38
2018-08-04T02:14:22.876Z,80.19
2018-08-04T02:15:33.055Z,80.47
2018-08-04T02:16:43.135Z,80.57
2018-08-04T02:17:53.220Z,80.63
2018-08-04T02:19:03.030Z,80.63
2018-08-04T02:20:12.862Z,80.77
2018-08-04T02:21:22.682Z,80.57
2018-08-04T02:22:32.763Z,80.77
2018-08-04T02:23:42.851Z,80.77
2018-08-04T02:24:52.948Z,80.54
2018-08-04T02:26:03.021Z,80.63
2018-08-04T02:27:12.837Z,80.73
2018-08-04T02:28:22.933Z,80.77
2018-08-04T02:29:33.039Z,80.34
2018-08-04T02:30:42.872Z,80.24
2018-08-04T02:31:52.970Z,80.34
2018-08-04T02:33:03.048Z,80.34
2018-08-04T02:34:13.133Z,80.54
2018-08-04T02:35:22.963Z,80.24
2018-08-04T02:36:33.046Z,80.3
2018-08-04T02:37:42.862Z,80.44
2018-08-04T02:38:52.952Z,80.44
2018-08-04T02:40:03.035Z,80.34
2018-08-04T02:41:12.881Z,80.34
2018-08-04T02:42:22.999Z,80.4
2018-08-04T02:43:33.106Z,80.3
2018-08-04T02:44:42.972Z,80.4
2018-08-04T02:45:53.057Z,80.3
2018-08-04T02:47:03.167Z,80.3
2018-08-04T02:48:13.251Z,80.59
2018-08-04T02:49:23.071Z,80.69
2018-08-04T02:50:33.195Z,80.49
2018-08-04T02:51:43.275Z,80.01
2018-08-04T02:52:53.360Z,80.4
2018-08-04T02:54:03.456Z,80.2
2018-08-04T02:55:13.547Z,80.49
2018-08-04T02:56:23.638Z,80.59
2018-08-04T02:57:33.750Z,80.3
2018-08-04T02:58:43.833Z,80.3
2018-08-04T02:59:53.920Z,80.49
2018-08-04T03:01:04.011Z,80.4
2018-08-04T03:02:14.156Z,80.3
2018-08-04T03:35:03.980Z,75.62
2018-08-04T03:36:13.809Z,76.3
2018-08-04T03:37:23.900Z,76.68
2018-08-04T03:38:33.451Z,77.55
2018-08-04T03:39:43.529Z,77.84
2018-08-04T03:40:53.961Z,77.94
2018-08-04T03:42:04.061Z,78.71
2018-08-04T03:43:14.197Z,78.91
2018-08-04T03:44:24.274Z,79.29
2018-08-04T03:45:34.376Z,79.24
2018-08-04T03:46:44.489Z,79.72
2018-08-04T03:47:54.586Z,79.43
2018-08-04T03:49:04.143Z,79.52
2018-08-04T03:50:13.977Z,79.66
2018-08-04T03:51:24.057Z,79.56
2018-08-04T03:52:34.131Z,79.37
2018-08-04T03:53:44.199Z,79.22
2018-08-04T03:54:54.281Z,79.7
2018-08-04T03:56:04.361Z,79.31
2018-08-04T03:57:14.177Z,79.5
2018-08-04T03:58:24.230Z,79.5
2018-08-04T03:59:34.070Z,79.6
2018-08-04T04:00:44.091Z,79.64
2018-08-04T04:01:53.891Z,79.74
2018-08-04T04:03:03.718Z,79.97
2018-08-04T04:04:13.323Z,79.97
2018-08-04T04:05:23.440Z,79.68
2018-08-04T04:06:33.307Z,79.68
2018-08-04T04:07:43.664Z,79.62
2018-08-04T04:08:53.961Z,79.72
2018-08-04T04:10:04.087Z,79.62
2018-08-04T04:11:14.159Z,79.72
2018-08-04T04:12:24.242Z,79.82
2018-08-04T04:13:34.125Z,79.57
2018-08-04T04:14:44.192Z,79.47
2018-08-04T04:15:54.053Z,79.37
2018-08-04T04:17:04.159Z,79.37
2018-08-04T04:18:14.305Z,79.27
2018-08-04T04:19:23.866Z,79.6
2018-08-04T04:20:33.682Z,79.5
2018-08-04T04:21:43.769Z,79.5
2018-08-04T04:22:53.851Z,79.7
2018-08-04T04:24:03.665Z,79.7
2018-08-04T04:25:13.741Z,79.7
2018-08-04T04:26:23.814Z,79.7
2018-08-04T04:27:33.885Z,79.7
2018-08-04T04:28:43.702Z,79.6
2018-08-04T04:29:53.782Z,78.67
2018-08-04T04:31:03.613Z,77.06
2018-08-04T04:32:13.426Z,76.46
2018-08-04T04:33:23.285Z,74.54
2018-08-04T04:34:33.378Z,73.99
2018-08-04T04:35:43.451Z,74.12
2018-08-04T04:36:53.641Z,74.74
2018-08-04T04:38:04.118Z,75.32
2018-08-04T04:39:14.218Z,76.35
2018-08-04T04:40:23.784Z,76.71
2018-08-04T04:41:33.615Z,77.45
2018-08-04T04:42:43.713Z,78.28
2018-08-04T04:43:53.786Z,78.19
2018-08-04T04:45:03.871Z,78.09
2018-08-04T04:46:13.681Z,77.06
2018-08-04T04:47:23.771Z,76.97
2018-08-04T04:48:34.106Z,77.2
2018-08-04T04:49:44.315Z,78.23
2018-08-04T04:50:54.392Z,78.42
2018-08-04T04:52:04.473Z,78.23
2018-08-04T04:53:14.286Z,77.64
2018-08-04T04:54:24.355Z,76.84
2018-08-04T04:55:34.311Z,75.32
2018-08-04T04:56:44.198Z,74.82
2018-08-04T04:57:54.278Z,73.82
2018-08-04T04:59:04.371Z,72.81
2018-08-04T05:00:14.444Z,72.39
2018-08-04T05:01:24.520Z,71.94
2018-08-04T05:02:34.710Z,71.88
2018-08-04T05:03:44.537Z,71.52
2018-08-04T05:04:54.607Z,71.46
2018-08-04T05:06:04.735Z,71.75
2018-08-04T05:07:14.809Z,71.3
2018-08-04T05:08:24.951Z,71.14
2018-08-04T05:09:35.013Z,71.37
2018-08-04T05:10:45.099Z,71.56
2018-08-04T05:11:55.196Z,71.41
2018-08-04T05:13:05.290Z,71.11
2018-08-04T05:14:15.473Z,71.04
2018-08-04T05:15:25.579Z,70.56
2018-08-04T05:16:35.648Z,70.85
2018-08-04T05:17:45.755Z,70.56
2018-08-04T05:18:55.837Z,70.89
2018-08-04T05:20:05.740Z,70.59
2018-08-04T05:21:15.830Z,70.72
2018-08-04T05:22:25.929Z,71.31
2018-08-04T05:23:35.771Z,71.11
2018-08-04T05:24:45.871Z,70.82
2018-08-04T05:25:55.971Z,70.95
2018-08-04T05:27:05.779Z,70.56
2018-08-04T05:28:15.866Z,70.56
2018-08-04T05:29:25.680Z,70.66
2018-08-04T05:30:35.754Z,70.79
2018-08-04T05:31:45.600Z,71.38
2018-08-04T05:32:55.716Z,70.69
2018-08-04T05:34:05.800Z,70.79
2018-08-04T05:35:15.885Z,70.89
2018-08-04T05:36:25.714Z,70.79
2018-08-04T05:37:35.579Z,71.28
2018-08-04T05:38:45.687Z,71.58
2018-08-04T05:39:55.540Z,71.31
2018-08-04T05:41:05.610Z,71.48
2018-08-04T05:42:15.688Z,71.48
2018-08-04T05:43:26.058Z,71.67
2018-08-04T05:44:36.530Z,71.48
2018-08-04T05:45:46.344Z,71.97
2018-08-04T05:46:56.441Z,71.97
2018-08-04T05:48:06.274Z,71.77
2018-08-04T05:49:16.404Z,72.07
2018-08-04T05:50:26.227Z,71.58
2018-08-04T05:51:36.334Z,72.07
2018-08-04T05:52:46.143Z,72.33
2018-08-04T05:53:56.221Z,72.33
2018-08-04T05:55:06.365Z,72.72
2018-08-04T05:56:16.463Z,72.63
2018-08-04T05:57:26.818Z,73.31
2018-08-04T05:58:36.897Z,73.41
2018-08-04T05:59:47.007Z,73.21
2018-08-04T06:00:57.109Z,73.31
2018-08-04T06:02:07.202Z,73.02
2018-08-04T06:03:17.357Z,73.5
2018-08-04T06:04:27.688Z,73.71
2018-08-04T06:05:37.518Z,73.71
2018-08-04T06:06:47.594Z,74.69
2018-08-04T06:07:57.671Z,75.7
2018-08-04T06:09:07.486Z,77.09
2018-08-04T06:10:17.584Z,77.12
2018-08-04T06:11:27.675Z,77.86
2018-08-04T06:12:37.780Z,78.02
2018-08-04T06:13:47.882Z,78.31
2018-08-04T06:14:57.948Z,78.47
2018-08-04T06:16:08.036Z,78.96
2018-08-04T06:17:18.096Z,78.53
2018-08-04T06:18:28.188Z,78.63
2018-08-04T06:19:38.501Z,78.33
2018-08-04T06:20:48.594Z,77.84
2018-08-04T06:21:58.724Z,77.45
2018-08-04T06:23:08.699Z,77.26
2018-08-04T06:24:18.859Z,77.16
2018-08-04T06:25:28.937Z,77.26
2018-08-04T06:26:39.014Z,77.16
2018-08-04T06:27:48.829Z,77.16
2018-08-04T06:28:58.676Z,77.75
2018-08-04T06:30:08.816Z,76.87
2018-08-04T06:31:18.906Z,76.97
2018-08-04T06:32:28.993Z,77.16
2018-08-04T06:33:39.602Z,77.03
2018-08-04T06:34:49.940Z,76.93
2018-08-04T06:35:59.792Z,77.42
2018-08-04T06:37:09.889Z,77.42
2018-08-04T06:38:19.713Z,77.42
2018-08-04T06:39:29.791Z,77.42
2018-08-04T06:40:39.867Z,77.03
2018-08-04T06:41:49.965Z,76.93
2018-08-04T06:42:59.809Z,77.12
2018-08-04T06:44:09.906Z,77.12
2018-08-04T06:45:19.744Z,77.42
2018-08-04T06:46:29.574Z,76.99
2018-08-04T06:47:39.404Z,77.67
2018-08-04T06:48:48.974Z,77.48
2018-08-04T06:49:59.048Z,76.99
2018-08-04T06:51:09.146Z,77.38
2018-08-04T06:52:18.976Z,77.09
2018-08-04T06:53:29.079Z,77.19
2018-08-04T06:54:39.173Z,77.12
2018-08-04T06:55:49.010Z,76.89
2018-08-04T06:56:58.830Z,77.12
2018-08-04T06:58:08.914Z,77.12
2018-08-04T06:59:18.883Z,77.28
2018-08-04T07:00:29.022Z,77.42
2018-08-04T07:01:38.833Z,76.99
2018-08-04T07:02:48.662Z,76.89
2018-08-04T07:03:58.212Z,76.89
2018-08-04T07:05:08.031Z,77.09
2018-08-04T07:06:18.063Z,77.67
2018-08-04T07:07:28.143Z,77.48
2018-08-04T07:08:38.232Z,77.67
2018-08-04T07:09:48.339Z,77.28
2018-08-04T07:10:58.168Z,77.48
2018-08-04T07:12:08.001Z,77.09
2018-08-04T07:13:18.113Z,77.19
2018-08-04T07:14:28.203Z,76.99
2018-08-04T07:15:38.309Z,77.19
2018-08-04T07:16:48.383Z,77.28
2018-08-04T07:17:58.215Z,77.28
2018-08-04T07:19:08.331Z,76.89
2018-08-04T07:20:18.450Z,76.99
2018-08-04T07:21:28.537Z,77.22
2018-08-04T07:22:38.392Z,76.93
2018-08-04T07:23:48.516Z,77.32
2018-08-04T07:24:58.622Z,77.22
2018-08-04T07:26:08.733Z,77.42
2018-08-04T07:27:18.816Z,77.12
2018-08-04T07:28:28.968Z,77.03
2018-08-04T07:29:38.818Z,77.16
2018-08-04T07:30:48.365Z,77.16
2018-08-04T07:31:58.377Z,77.16
2018-08-04T07:33:08.475Z,76.57
2018-08-04T07:34:18.687Z,76.87
2018-08-04T07:35:28.470Z,77.36
2018-08-04T07:36:38.296Z,77.26
2018-08-04T07:37:48.390Z,77.06
2018-08-04T07:38:58.489Z,77.06
2018-08-04T07:40:08.094Z,77.06
2018-08-04T07:41:18.180Z,77.06
2018-08-04T07:42:28.291Z,77.26
2018-08-04T07:43:38.374Z,77.06
2018-08-04T07:44:48.457Z,77
2018-08-04T07:45:58.520Z,77
2018-08-04T07:47:08.606Z,76.61
2018-08-04T07:48:18.428Z,76.9
2018-08-04T07:49:28.268Z,76.71
2018-08-04T07:50:38.088Z,76.9
2018-08-04T07:51:48.231Z,76.81
2018-08-04T07:52:58.069Z,76.71
2018-08-04T07:54:08.214Z,77.2
2018-08-04T07:55:18.045Z,77.2
2018-08-04T07:56:28.131Z,76.9
2018-08-04T07:57:37.958Z,77.29
2018-08-04T07:58:47.770Z,77
2018-08-04T07:59:57.595Z,77.04
2018-08-04T08:01:07.681Z,76.75
2018-08-04T08:02:17.780Z,76.55
2018-08-04T08:03:27.863Z,76.68
2018-08-04T08:04:37.954Z,76.78
2018-08-04T08:05:48.047Z,76.68
2018-08-04T08:06:57.869Z,76.68
2018-08-04T08:08:07.420Z,76.98
2018-08-04T08:09:17.805Z,76.78
2018-08-04T08:10:28.186Z,76.78
2018-08-04T08:11:38.757Z,76.59
2018-08-04T08:12:48.872Z,77.01
2018-08-04T08:13:58.983Z,76.68
2018-08-04T08:15:08.882Z,76.68
2018-08-04T08:16:18.979Z,76.88
2018-08-04T08:17:29.080Z,76.92
2018-08-04T08:18:39.157Z,77.01
2018-08-04T08:19:49.283Z,76.82
2018-08-04T08:20:59.371Z,76.72
2018-08-04T08:22:09.201Z,76.66
2018-08-04T08:23:19.218Z,76.76
2018-08-04T08:24:29.330Z,76.96
2018-08-04T08:25:39.437Z,76.86
2018-08-04T08:26:49.260Z,76.86
2018-08-04T08:27:59.135Z,76.86
2018-08-04T08:29:08.983Z,77
2018-08-04T08:30:19.059Z,76.7
2018-08-04T08:31:28.828Z,76.8
2018-08-04T08:32:39.232Z,76.7
2018-08-04T08:33:49.668Z,76.7
2018-08-04T08:34:59.752Z,76.9
2018-08-04T08:36:09.596Z,76.8
2018-08-04T08:37:19.698Z,77
2018-08-04T08:38:29.520Z,76.64
2018-08-04T08:39:39.414Z,76.84
2018-08-04T08:40:49.240Z,77.03
2018-08-04T08:41:59.361Z,76.84
2018-08-04T08:43:09.468Z,77.03
2018-08-04T08:44:19.561Z,76.93
2018-08-04T08:45:29.701Z,76.93
2018-08-04T08:46:39.522Z,76.78
2018-08-04T08:47:49.335Z,76.87
2018-08-04T08:48:59.427Z,76.78
2018-08-04T08:50:09.257Z,76.78
2018-08-04T08:51:19.360Z,76.87
2018-08-04T08:52:29.430Z,76.78
2018-08-04T08:53:39.792Z,76.97
2018-08-04T08:54:50.438Z,76.97
2018-08-04T08:56:00.814Z,76.91
2018-08-04T08:57:10.635Z,77.11
2018-08-04T08:58:20.760Z,76.81
2018-08-04T08:59:30.605Z,76.91
2018-08-04T09:00:40.450Z,77.07
2018-08-04T09:01:50.578Z,77.17
2018-08-04T09:03:00.553Z,77.17
2018-08-04T09:04:10.856Z,76.97
2018-08-04T09:05:21.107Z,76.97
2018-08-04T09:06:31.365Z,76.87
2018-08-04T09:07:41.808Z,76.78
2018-08-04T09:08:51.935Z,77.07
2018-08-04T09:10:02.327Z,77.07
2018-08-04T09:11:12.695Z,77.17
2018-08-04T09:12:23.139Z,77.01
2018-08-04T09:13:33.306Z,76.91
2018-08-04T09:14:43.408Z,76.81
2018-08-04T09:15:53.233Z,76.72
2018-08-04T09:17:03.342Z,76.81
2018-08-04T09:18:13.454Z,77.24
2018-08-04T09:19:23.273Z,77.24
2018-08-04T09:20:33.361Z,76.35
2018-08-04T09:21:43.471Z,76.95
2018-08-04T09:22:53.569Z,77.04
2018-08-04T09:24:03.958Z,77.04
2018-08-04T09:25:14.062Z,76.95
2018-08-04T09:26:24.165Z,76.85
2018-08-04T09:27:33.779Z,77.04
2018-08-04T09:28:43.604Z,77.34
2018-08-04T09:29:53.422Z,76.46
2018-08-04T09:31:03.523Z,77.14
2018-08-04T09:32:13.141Z,76.35
2018-08-04T09:33:23.221Z,76.39
2018-08-04T09:34:33.058Z,76.59
2018-08-04T09:35:43.144Z,76.39
2018-08-04T09:36:53.226Z,76.39
2018-08-04T09:38:03.475Z,76.39
2018-08-04T09:39:13.849Z,76.39
2018-08-04T09:40:23.762Z,76.59
2018-08-04T09:41:33.569Z,76.59
2018-08-04T09:42:43.399Z,76.5
2018-08-04T09:43:53.604Z,76.5
2018-08-04T09:45:03.445Z,77.28
2018-08-04T09:46:13.534Z,77.28
2018-08-04T09:47:23.359Z,76.59
2018-08-04T09:48:33.412Z,76.33
2018-08-04T09:49:43.506Z,76.53
2018-08-04T09:50:53.599Z,76.53
2018-08-04T09:52:03.668Z,76.63
2018-08-04T09:53:13.495Z,76.43
2018-08-04T09:54:23.590Z,76.43
2018-08-04T09:55:33.685Z,76.33
2018-08-04T09:56:43.788Z,76.53
2018-08-04T09:57:53.878Z,76.57
2018-08-04T09:59:03.977Z,76.67
2018-08-04T10:00:13.824Z,76.51
2018-08-04T10:01:23.927Z,76.61
2018-08-04T10:02:34.015Z,76.01
2018-08-04T10:03:43.836Z,76.34
2018-08-04T10:04:53.962Z,76.34
2018-08-04T10:06:04.126Z,76.64
2018-08-04T10:07:13.981Z,76.54
2018-08-04T10:08:24.132Z,76.48
2018-08-04T10:09:34.238Z,75.89
2018-08-04T10:10:44.367Z,75.79
2018-08-04T10:11:54.494Z,76.18
2018-08-04T10:13:04.739Z,75.73
2018-08-04T10:14:15.151Z,76.12
2018-08-04T10:15:25.266Z,76.12
2018-08-04T10:16:35.390Z,75.83
2018-08-04T10:17:45.495Z,75.93
2018-08-04T10:18:55.610Z,76.16
2018-08-04T10:20:05.751Z,75.96
2018-08-04T10:21:16.232Z,76.16
2018-08-04T10:22:26.423Z,75.96
2018-08-04T10:23:37.255Z,76.06
2018-08-04T10:24:50.579Z,75.96
2018-08-04T10:26:03.632Z,75.96
2018-08-04T10:27:17.499Z,76.16
2018-08-04T10:28:30.050Z,75.9
2018-08-04T10:29:41.352Z,75.7
2018-08-04T10:30:51.201Z,75.05
2018-08-04T10:32:01.164Z,75.45
2018-08-04T10:33:11.793Z,75.58
2018-08-04T10:34:21.626Z,75.48
2018-08-04T10:35:31.759Z,75.28
2018-08-04T10:36:41.889Z,75.68
2018-08-04T10:37:51.980Z,75.68
2018-08-04T10:39:02.079Z,75.88
2018-08-04T10:40:12.169Z,75.58
2018-08-04T10:41:22.328Z,75.71
2018-08-04T10:42:32.163Z,75.48
2018-08-04T10:43:42.242Z,75.42
2018-08-04T10:44:52.373Z,75.71
2018-08-04T10:46:02.454Z,75.62
2018-08-04T10:47:12.553Z,75.12
2018-08-04T10:48:22.676Z,75.32
2018-08-04T10:49:32.877Z,75.26
2018-08-04T10:50:43.301Z,74.57
2018-08-04T10:51:53.410Z,74.99
2018-08-04T10:53:03.576Z,74.44
2018-08-04T10:54:14.140Z,74.34
2018-08-04T10:55:24.239Z,74.14
2018-08-04T10:56:34.325Z,74.38
2018-08-04T10:57:44.429Z,74.57
2018-08-04T10:58:54.374Z,74.48
2018-08-04T11:00:04.215Z,74.87
2018-08-04T11:01:14.057Z,74.77
2018-08-04T11:02:24.157Z,74.77
2018-08-04T11:03:34.248Z,74.91
2018-08-04T11:04:44.066Z,74.51
2018-08-04T11:05:54.175Z,74.35
2018-08-04T11:07:04.285Z,74.25
2018-08-04T11:08:14.110Z,73.95
2018-08-04T11:09:24.222Z,73.99
2018-08-04T11:10:34.041Z,73.99
2018-08-04T11:11:43.888Z,73.99
2018-08-04T11:12:53.973Z,74.12
2018-08-04T11:14:04.056Z,74.12
2018-08-04T11:15:13.902Z,73.76
2018-08-04T11:16:24.001Z,74.16
2018-08-04T11:17:34.116Z,73.96
2018-08-04T11:18:44.236Z,74.42
2018-08-04T11:19:54.322Z,74.58
2018-08-04T11:21:04.410Z,74.95
2018-08-04T11:22:14.329Z,74.91
2018-08-04T11:23:24.426Z,75.4
2018-08-04T11:24:34.521Z,75.76
2018-08-04T11:25:44.377Z,75.82
2018-08-04T11:26:54.481Z,76.64
2018-08-04T11:28:04.828Z,76.7
2018-08-04T11:29:14.958Z,76.67
2018-08-04T11:30:25.070Z,76.76
2018-08-04T11:31:35.170Z,75.98
2018-08-04T11:32:45.025Z,75.52
2018-08-04T11:33:55.142Z,76.17
2018-08-04T11:35:04.984Z,75.88
2018-08-04T11:36:14.804Z,75.71
2018-08-04T11:37:24.898Z,75.06
2018-08-04T11:38:34.988Z,75.45
2018-08-04T11:39:44.838Z,74.9
2018-08-04T11:40:54.943Z,74.74
2018-08-04T11:42:05.045Z,74.74
2018-08-04T11:43:14.875Z,74.48
2018-08-04T11:44:24.946Z,74.38
2018-08-04T11:45:35.218Z,74.11
2018-08-04T11:46:45.535Z,74.21
2018-08-04T11:47:55.755Z,74.87
2018-08-04T11:49:05.599Z,75.67
2018-08-04T11:50:15.420Z,75.73
2018-08-04T11:51:25.309Z,76.64
2018-08-04T11:52:35.563Z,76.64
2018-08-04T11:53:45.685Z,77.36
2018-08-04T11:54:55.777Z,77.72
2018-08-04T11:56:05.854Z,77.78
2018-08-04T11:57:16.030Z,77.58
2018-08-04T11:58:25.994Z,77.64
2018-08-04T11:59:35.765Z,77.38
2018-08-04T12:00:45.856Z,77.25
2018-08-04T12:01:55.855Z,76.35
2018-08-04T12:03:05.837Z,75.94
2018-08-04T12:04:15.961Z,75.88
2018-08-04T12:05:25.932Z,75.12
2018-08-04T12:06:36.355Z,75.65
2018-08-04T12:07:45.950Z,75.16
2018-08-04T12:08:56.147Z,75.29
2018-08-04T12:10:06.470Z,75.2
2018-08-04T12:11:16.338Z,75.29
2018-08-04T12:12:25.893Z,75.1
2018-08-04T12:13:36.073Z,75.23
2018-08-04T12:14:46.188Z,75.63
2018-08-04T12:15:56.765Z,75.13
2018-08-04T12:17:06.874Z,75.33
2018-08-04T12:18:17.393Z,75.46
2018-08-04T12:19:27.617Z,74.97
2018-08-04T12:20:37.757Z,74.77
2018-08-04T12:21:47.930Z,74.61
2018-08-04T12:22:58.603Z,74.8
2018-08-04T12:24:08.723Z,74.91
2018-08-04T12:25:18.832Z,74.8
2018-08-04T12:26:29.048Z,74.8
2018-08-04T12:27:39.170Z,74.91
2018-08-04T12:28:48.735Z,74.51
2018-08-04T12:29:58.929Z,75.2
2018-08-04T12:31:09.528Z,74.91
2018-08-04T12:32:19.703Z,75.31
2018-08-04T12:33:29.595Z,75.4
2018-08-04T12:34:39.700Z,75.67
2018-08-04T12:35:49.524Z,75.86
2018-08-04T12:36:59.608Z,75.76
2018-08-04T12:38:09.436Z,75.76
2018-08-04T12:39:19.544Z,75.67
2018-08-04T12:40:29.630Z,75.37
2018-08-04T12:41:39.728Z,75.73
2018-08-04T12:42:49.826Z,75.82
2018-08-04T12:43:59.660Z,75.96
2018-08-04T12:45:09.771Z,75.86
2018-08-04T12:46:19.854Z,75.76
2018-08-04T12:47:29.963Z,75.76
2018-08-04T12:48:40.085Z,75.67
2018-08-04T12:49:49.932Z,75.56
2018-08-04T12:51:00.043Z,75.86
2018-08-04T12:52:10.152Z,75.76
2018-08-04T12:53:19.991Z,75.56
2018-08-04T12:54:29.939Z,75.37
2018-08-04T12:55:40.342Z,75.46
2018-08-04T12:56:50.480Z,75.27
2018-08-04T12:58:00.354Z,75.56
2018-08-04T12:59:10.450Z,75.27
2018-08-04T13:00:20.335Z,75.33
2018-08-04T13:01:30.491Z,75.13
2018-08-04T13:02:40.717Z,75.46
2018-08-04T13:03:51.093Z,75.67
2018-08-04T13:05:01.199Z,75.86
2018-08-04T13:06:11.014Z,76.06
2018-08-04T13:07:20.589Z,75.67
2018-08-04T13:08:30.740Z,75.27
2018-08-04T13:09:40.867Z,75.4
2018-08-04T13:10:51.022Z,75.5
2018-08-04T13:12:00.978Z,75.5
2018-08-04T13:13:11.297Z,75.5
2018-08-04T13:14:21.426Z,75.4
2018-08-04T13:15:31.491Z,75.4
2018-08-04T13:16:41.335Z,75.31
2018-08-04T13:17:51.436Z,75.8
2018-08-04T13:19:01.270Z,76.06
2018-08-04T13:20:11.364Z,75.56
2018-08-04T13:21:21.461Z,75.56
2018-08-04T13:22:31.560Z,75.73
2018-08-04T13:23:41.389Z,76.03
2018-08-04T13:24:51.465Z,75.49
2018-08-04T13:26:01.551Z,75.99
2018-08-04T13:27:11.663Z,76.38
2018-08-04T13:28:21.535Z,76.28
2018-08-04T13:29:31.630Z,75.79
2018-08-04T13:30:41.511Z,75.75
2018-08-04T13:31:51.620Z,75.95
2018-08-04T13:33:01.734Z,76.34
2018-08-04T13:34:11.821Z,75.75
2018-08-04T13:35:21.920Z,75.85
2018-08-04T13:36:31.484Z,75.95
2018-08-04T13:37:41.357Z,75.45
2018-08-04T13:38:51.481Z,75.99
2018-08-04T13:40:01.588Z,75.56
2018-08-04T13:41:11.680Z,75.65
2018-08-04T13:42:21.804Z,75.49
2018-08-04T13:43:32.022Z,75.79
2018-08-04T13:44:41.879Z,75.89
2018-08-04T13:45:51.983Z,75.79
2018-08-04T13:47:02.089Z,75.79
2018-08-04T13:48:11.914Z,75.49
2018-08-04T13:49:22.077Z,75.79
2018-08-04T13:50:31.950Z,75.59
2018-08-04T13:51:42.064Z,75.99
2018-08-04T13:52:52.165Z,75.99
2018-08-04T13:54:02.266Z,75.59
2018-08-04T13:55:12.158Z,75.99
2018-08-04T13:56:22.255Z,75.73
2018-08-04T13:57:32.357Z,75.63
2018-08-04T13:58:42.450Z,76.03
2018-08-04T13:59:52.558Z,75.73
2018-08-04T14:01:02.663Z,76.52
2018-08-04T14:02:12.806Z,76.18
2018-08-04T14:03:22.891Z,76.28
2018-08-04T14:04:32.780Z,76.28
2018-08-04T14:05:42.890Z,76.18
2018-08-04T14:06:53.122Z,76.28
2018-08-04T14:08:03.237Z,76.18
2018-08-04T14:09:13.327Z,76.18
2018-08-04T14:10:23.423Z,76.48
2018-08-04T14:11:33.025Z,76.18
2018-08-04T14:12:43.137Z,76.38
2018-08-04T14:13:53.071Z,76.18
2018-08-04T14:15:03.190Z,76.38
2018-08-04T14:16:13.291Z,76.38
2018-08-04T14:17:23.437Z,76.78
2018-08-04T14:18:33.624Z,76.28
2018-08-04T14:19:43.471Z,76.87
2018-08-04T14:20:53.581Z,76.78
2018-08-04T14:22:03.708Z,76.78
2018-08-04T14:23:13.645Z,76.58
2018-08-04T14:24:23.838Z,76.38
2018-08-04T14:25:33.632Z,76.58
2018-08-04T14:26:43.751Z,76.18
2018-08-04T14:27:53.850Z,76.58
2018-08-04T14:29:03.960Z,76.45
2018-08-04T14:30:14.080Z,76.48
2018-08-04T14:31:24.510Z,76.68
2018-08-04T14:32:34.835Z,76.58
2018-08-04T14:33:44.938Z,76.54
2018-08-04T14:34:55.281Z,76.54
2018-08-04T14:36:05.719Z,76.7
2018-08-04T14:37:15.829Z,76.74
2018-08-04T14:38:25.921Z,76.94
2018-08-04T14:39:36.023Z,76.74
2018-08-04T14:40:46.126Z,76.4
2018-08-04T14:41:56.237Z,76.4
2018-08-04T14:43:06.358Z,76.4
2018-08-04T14:44:16.468Z,76.4
2018-08-04T14:45:26.569Z,76.4
2018-08-04T14:46:36.670Z,76.4
2018-08-04T14:47:46.769Z,76.31
2018-08-04T14:48:56.876Z,76.9
2018-08-04T14:50:06.709Z,76.7
2018-08-04T14:51:16.815Z,76.4
2018-08-04T14:52:26.907Z,76.4
2018-08-04T14:53:37.000Z,76.54
2018-08-04T14:54:46.896Z,76.51
2018-08-04T14:55:56.969Z,76.31
2018-08-04T14:57:07.066Z,76.31
2018-08-04T14:58:16.915Z,76.4
2018-08-04T14:59:27.035Z,76.8
2018-08-04T15:00:37.149Z,76.8
2018-08-04T15:01:47.249Z,76.8
2018-08-04T15:02:56.885Z,77
2018-08-04T15:04:07.048Z,76.61
2018-08-04T15:05:16.925Z,76.7
2018-08-04T15:06:26.768Z,76.8
2018-08-04T15:07:36.864Z,76.9
2018-08-04T15:08:46.940Z,76.8
2018-08-04T15:09:56.891Z,76.61
2018-08-04T15:11:07.138Z,76.7
2018-08-04T15:12:17.252Z,76.8
2018-08-04T15:13:27.093Z,76.8
2018-08-04T15:14:37.179Z,76.84
2018-08-04T15:15:47.095Z,76.8
2018-08-04T15:16:56.594Z,76.61
2018-08-04T15:18:06.701Z,76.8
2018-08-04T15:19:16.543Z,76.8
2018-08-04T15:20:26.670Z,76.9
2018-08-04T15:21:36.998Z,76.61
2018-08-04T15:22:47.366Z,76.7
2018-08-04T15:23:57.474Z,76.51
2018-08-04T15:25:07.047Z,76.47
2018-08-04T15:26:17.139Z,76.51
2018-08-04T15:27:26.981Z,76.47
2018-08-04T15:28:36.815Z,76.47
2018-08-04T15:29:46.906Z,76.37
2018-08-04T15:30:56.999Z,76.8
2018-08-04T15:32:07.100Z,76.51
2018-08-04T15:33:17.312Z,76.57
2018-08-04T15:34:27.470Z,76.67
2018-08-04T15:35:37.311Z,76.47
2018-08-04T15:36:47.431Z,76.67
2018-08-04T15:37:57.037Z,76.97